sensor_id;sensor_type;location;lat;lon;timestamp;temperature;humidity
7796;DHT22;3942;51.518;6.912;2024-02-16T00:03:28;13.70;99.90
7796;DHT22;3942;51.518;6.912;2024-02-16T00:08:30;13.70;99.90
7796;DHT22;3942;51.518;6.912;2024-02-16T00:13:33;13.70;99.90
7796;DHT22;3942;51.518;6.912;2024-02-16T00:18:35;13.70;99.90
7796;DHT22;3942;51.518;6.912;2024-02-16T00:23:37;13.70;99.90
7796;DHT22;3942;51.518;6.912;2024-02-16T00:28:40;13.80;99.90
7796;DHT22;3942;51.518;6.912;2024-02-16T00:43:49;13.70;99.90
7796;DHT22;3942;51.518;6.912;2024-02-16T00:48:52;14.20;99.90
7796;DHT22;3942;51.518;6.912;2024-02-16T00:53:54;13.60;99.90
7796;DHT22;3942;51.518;6.912;2024-02-16T00:58:57;13.70;99.90
7796;DHT22;3942;51.518;6.912;2024-02-16T01:03:59;13.80;99.90
7796;DHT22;3942;51.518;6.912;2024-02-16T01:09:01;13.60;99.90
7796;DHT22;3942;51.518;6.912;2024-02-16T01:14:05;13.60;99.90
7796;DHT22;3942;51.518;6.912;2024-02-16T01:29:15;13.70;99.90
7796;DHT22;3942;51.518;6.912;2024-02-16T01:34:16;13.60;99.90
7796;DHT22;3942;51.518;6.912;2024-02-16T01:39:18;13.80;99.90
7796;DHT22;3942;51.518;6.912;2024-02-16T01:44:21;13.70;99.90
7796;DHT22;3942;51.518;6.912;2024-02-16T01:49:23;13.70;99.90
7796;DHT22;3942;51.518;6.912;2024-02-16T01:54:25;13.70;99.90
7796;DHT22;3942;51.518;6.912;2024-02-16T01:59:28;13.80;99.90
7796;DHT22;3942;51.518;6.912;2024-02-16T02:04:30;13.80;31.70
7796;DHT22;3942;51.518;6.912;2024-02-16T02:09:32;13.80;75.20
7796;DHT22;3942;51.518;6.912;2024-02-16T02:14:35;13.70;73.80
7796;DHT22;3942;51.518;6.912;2024-02-16T02:19:38;13.80;99.90
7796;DHT22;3942;51.518;6.912;2024-02-16T02:24:41;13.70;99.80
7796;DHT22;3942;51.518;6.912;2024-02-16T02:29:44;13.80;99.90
7796;DHT22;3942;51.518;6.912;2024-02-16T02:34:46;13.80;99.90
7796;DHT22;3942;51.518;6.912;2024-02-16T02:39:49;13.80;99.90
7796;DHT22;3942;51.518;6.912;2024-02-16T02:44:51;13.70;99.90
7796;DHT22;3942;51.518;6.912;2024-02-16T02:49:53;13.70;99.90
7796;DHT22;3942;51.518;6.912;2024-02-16T02:54:56;13.70;99.90
7796;DHT22;3942;51.518;6.912;2024-02-16T03:00:03;13.80;99.90
7796;DHT22;3942;51.518;6.912;2024-02-16T03:05:07;13.60;99.90
7796;DHT22;3942;51.518;6.912;2024-02-16T03:10:10;13.70;99.90
7796;DHT22;3942;51.518;6.912;2024-02-16T03:15:12;13.70;99.90
7796;DHT22;3942;51.518;6.912;2024-02-16T03:25:18;13.60;1.00
7796;DHT22;3942;51.518;6.912;2024-02-16T03:30:20;13.70;1.00
7796;DHT22;3942;51.518;6.912;2024-02-16T03:35:22;13.80;1.00
7796;DHT22;3942;51.518;6.912;2024-02-16T03:40:26;13.60;1.00
7796;DHT22;3942;51.518;6.912;2024-02-16T03:45:28;13.60;1.00
7796;DHT22;3942;51.518;6.912;2024-02-16T03:50:30;13.70;1.00
7796;DHT22;3942;51.518;6.912;2024-02-16T03:55:33;13.60;1.00
7796;DHT22;3942;51.518;6.912;2024-02-16T04:00:37;13.60;1.00
7796;DHT22;3942;51.518;6.912;2024-02-16T04:05:39;13.60;1.00
7796;DHT22;3942;51.518;6.912;2024-02-16T04:10:42;13.70;1.00
7796;DHT22;3942;51.518;6.912;2024-02-16T04:15:44;13.60;1.00
7796;DHT22;3942;51.518;6.912;2024-02-16T04:20:46;13.70;1.00
7796;DHT22;3942;51.518;6.912;2024-02-16T04:25:49;13.70;1.00
7796;DHT22;3942;51.518;6.912;2024-02-16T04:30:51;13.60;97.30
7796;DHT22;3942;51.518;6.912;2024-02-16T04:40:56;13.70;99.90
7796;DHT22;3942;51.518;6.912;2024-02-16T04:56:05;13.60;99.90
7796;DHT22;3942;51.518;6.912;2024-02-16T05:01:07;13.50;99.90
7796;DHT22;3942;51.518;6.912;2024-02-16T05:06:08;13.60;99.90
7796;DHT22;3942;51.518;6.912;2024-02-16T05:11:12;13.50;99.90
7796;DHT22;3942;51.518;6.912;2024-02-16T05:16:14;13.50;1.00
7796;DHT22;3942;51.518;6.912;2024-02-16T05:21:16;13.50;1.00
7796;DHT22;3942;51.518;6.912;2024-02-16T05:26:19;13.60;1.00
7796;DHT22;3942;51.518;6.912;2024-02-16T05:36:23;13.40;1.00
7796;DHT22;3942;51.518;6.912;2024-02-16T05:41:31;13.50;1.00
7796;DHT22;3942;51.518;6.912;2024-02-16T05:46:34;13.40;1.00
7796;DHT22;3942;51.518;6.912;2024-02-16T05:51:39;13.40;47.20
7796;DHT22;3942;51.518;6.912;2024-02-16T05:56:43;13.30;99.30
7796;DHT22;3942;51.518;6.912;2024-02-16T06:01:45;13.40;99.90
7796;DHT22;3942;51.518;6.912;2024-02-16T06:11:51;13.30;99.90
7796;DHT22;3942;51.518;6.912;2024-02-16T06:16:53;13.50;99.90
7796;DHT22;3942;51.518;6.912;2024-02-16T06:21:55;13.40;99.90
7796;DHT22;3942;51.518;6.912;2024-02-16T06:26:58;13.40;99.90
7796;DHT22;3942;51.518;6.912;2024-02-16T06:32:00;13.50;99.90
7796;DHT22;3942;51.518;6.912;2024-02-16T06:37:03;13.40;99.90
7796;DHT22;3942;51.518;6.912;2024-02-16T06:42:06;13.40;99.90
7796;DHT22;3942;51.518;6.912;2024-02-16T06:47:08;13.60;99.90
7796;DHT22;3942;51.518;6.912;2024-02-16T06:57:13;13.40;99.90
7796;DHT22;3942;51.518;6.912;2024-02-16T07:02:15;13.50;99.90
7796;DHT22;3942;51.518;6.912;2024-02-16T07:07:18;13.50;99.90
7796;DHT22;3942;51.518;6.912;2024-02-16T07:12:21;13.50;99.90
7796;DHT22;3942;51.518;6.912;2024-02-16T07:22:25;13.50;99.90
7796;DHT22;3942;51.518;6.912;2024-02-16T07:27:29;13.50;99.90
7796;DHT22;3942;51.518;6.912;2024-02-16T07:42:39;13.70;99.90
7796;DHT22;3942;51.518;6.912;2024-02-16T07:47:42;13.70;99.90
7796;DHT22;3942;51.518;6.912;2024-02-16T07:52:44;13.70;99.90
7796;DHT22;3942;51.518;6.912;2024-02-16T07:57:47;13.70;99.90
7796;DHT22;3942;51.518;6.912;2024-02-16T08:07:51;13.80;99.90
7796;DHT22;3942;51.518;6.912;2024-02-16T08:12:55;13.90;99.90
7796;DHT22;3942;51.518;6.912;2024-02-16T08:17:57;13.80;99.90
7796;DHT22;3942;51.518;6.912;2024-02-16T08:22:58;14.00;96.90
7796;DHT22;3942;51.518;6.912;2024-02-16T08:28:02;13.80;92.70
7796;DHT22;3942;51.518;6.912;2024-02-16T08:33:04;13.90;64.40
7796;DHT22;3942;51.518;6.912;2024-02-16T08:38:06;14.00;96.10
7796;DHT22;3942;51.518;6.912;2024-02-16T08:43:12;14.00;32.50
7796;DHT22;3942;51.518;6.912;2024-02-16T08:48:14;14.00;29.70
7796;DHT22;3942;51.518;6.912;2024-02-16T08:53:16;14.00;67.50
7796;DHT22;3942;51.518;6.912;2024-02-16T08:58:19;14.10;24.80
7796;DHT22;3942;51.518;6.912;2024-02-16T09:03:21;14.10;34.90
7796;DHT22;3942;51.518;6.912;2024-02-16T09:13:27;14.30;71.80
7796;DHT22;3942;51.518;6.912;2024-02-16T09:18:29;14.20;26.10
7796;DHT22;3942;51.518;6.912;2024-02-16T09:23:32;14.30;30.70
7796;DHT22;3942;51.518;6.912;2024-02-16T09:28:39;14.30;20.30
7796;DHT22;3942;51.518;6.912;2024-02-16T09:33:41;14.40;32.90
7796;DHT22;3942;51.518;6.912;2024-02-16T09:43:47;14.40;99.90
7796;DHT22;3942;51.518;6.912;2024-02-16T09:58:57;14.50;99.90
7796;DHT22;3942;51.518;6.912;2024-02-16T10:04:05;14.60;99.90
7796;DHT22;3942;51.518;6.912;2024-02-16T10:09:07;14.60;99.90
7796;DHT22;3942;51.518;6.912;2024-02-16T10:14:11;14.70;99.90
7796;DHT22;3942;51.518;6.912;2024-02-16T10:19:12;14.70;99.90
7796;DHT22;3942;51.518;6.912;2024-02-16T10:29:21;14.70;99.90
7796;DHT22;3942;51.518;6.912;2024-02-16T10:34:24;14.70;99.90
7796;DHT22;3942;51.518;6.912;2024-02-16T10:39:26;14.80;99.90
7796;DHT22;3942;51.518;6.912;2024-02-16T10:44:30;14.80;99.90
7796;DHT22;3942;51.518;6.912;2024-02-16T10:49:32;14.80;99.90
7796;DHT22;3942;51.518;6.912;2024-02-16T10:54:34;14.90;99.90
7796;DHT22;3942;51.518;6.912;2024-02-16T10:59:41;14.80;99.90
7796;DHT22;3942;51.518;6.912;2024-02-16T11:04:46;14.80;99.90
7796;DHT22;3942;51.518;6.912;2024-02-16T11:09:50;14.70;99.90
7796;DHT22;3942;51.518;6.912;2024-02-16T11:14:56;14.80;99.90
7796;DHT22;3942;51.518;6.912;2024-02-16T11:20:00;14.70;99.90
7796;DHT22;3942;51.518;6.912;2024-02-16T11:25:05;14.80;99.90
7796;DHT22;3942;51.518;6.912;2024-02-16T11:30:11;14.70;99.90
7796;DHT22;3942;51.518;6.912;2024-02-16T11:40:17;14.80;99.90
7796;DHT22;3942;51.518;6.912;2024-02-16T11:45:21;14.80;99.90
7796;DHT22;3942;51.518;6.912;2024-02-16T11:50:23;14.80;99.90
7796;DHT22;3942;51.518;6.912;2024-02-16T12:00:28;14.70;99.90
7796;DHT22;3942;51.518;6.912;2024-02-16T12:15:38;14.70;99.90
7796;DHT22;3942;51.518;6.912;2024-02-16T12:25:42;14.70;99.90
7796;DHT22;3942;51.518;6.912;2024-02-16T12:30:45;14.70;99.90
7796;DHT22;3942;51.518;6.912;2024-02-16T12:35:47;14.80;99.90
7796;DHT22;3942;51.518;6.912;2024-02-16T12:45:53;14.70;99.90
7796;DHT22;3942;51.518;6.912;2024-02-16T12:50:55;13.60;99.90
7796;DHT22;3942;51.518;6.912;2024-02-16T13:01:02;14.60;99.90
7796;DHT22;3942;51.518;6.912;2024-02-16T13:06:06;14.60;99.90
7796;DHT22;3942;51.518;6.912;2024-02-16T13:11:08;14.60;99.90
7796;DHT22;3942;51.518;6.912;2024-02-16T13:16:11;14.50;99.90
7796;DHT22;3942;51.518;6.912;2024-02-16T13:21:13;14.60;99.90
7796;DHT22;3942;51.518;6.912;2024-02-16T13:31:20;14.50;99.90
7796;DHT22;3942;51.518;6.912;2024-02-16T13:36:21;14.50;99.90
7796;DHT22;3942;51.518;6.912;2024-02-16T13:41:24;14.50;99.90
7796;DHT22;3942;51.518;6.912;2024-02-16T13:46:28;14.30;99.90
7796;DHT22;3942;51.518;6.912;2024-02-16T13:56:32;14.20;99.90
7796;DHT22;3942;51.518;6.912;2024-02-16T14:01:36;14.20;99.90
7796;DHT22;3942;51.518;6.912;2024-02-16T14:11:40;14.20;99.90
7796;DHT22;3942;51.518;6.912;2024-02-16T14:16:44;14.10;99.90
7796;DHT22;3942;51.518;6.912;2024-02-16T14:21:46;14.10;99.90
7796;DHT22;3942;51.518;6.912;2024-02-16T14:26:48;14.00;99.90
7796;DHT22;3942;51.518;6.912;2024-02-16T14:31:51;13.90;99.90
7796;DHT22;3942;51.518;6.912;2024-02-16T14:36:53;14.10;99.90
7796;DHT22;3942;51.518;6.912;2024-02-16T14:41:56;14.00;99.90
7796;DHT22;3942;51.518;6.912;2024-02-16T14:46:59;14.00;99.90
7796;DHT22;3942;51.518;6.912;2024-02-16T14:52:01;13.90;99.90
7796;DHT22;3942;51.518;6.912;2024-02-16T15:02:07;13.90;99.90
7796;DHT22;3942;51.518;6.912;2024-02-16T15:07:09;13.90;99.90
7796;DHT22;3942;51.518;6.912;2024-02-16T15:12:11;13.80;99.90
7796;DHT22;3942;51.518;6.912;2024-02-16T15:17:14;13.90;99.90
7796;DHT22;3942;51.518;6.912;2024-02-16T15:22:17;13.80;99.90
7796;DHT22;3942;51.518;6.912;2024-02-16T15:32:23;13.80;99.90
7796;DHT22;3942;51.518;6.912;2024-02-16T15:37:25;13.80;99.90
7796;DHT22;3942;51.518;6.912;2024-02-16T15:42:28;13.80;99.90
7796;DHT22;3942;51.518;6.912;2024-02-16T15:47:32;13.70;99.90
7796;DHT22;3942;51.518;6.912;2024-02-16T15:52:34;13.80;99.90
7796;DHT22;3942;51.518;6.912;2024-02-16T16:02:39;13.70;99.90
7796;DHT22;3942;51.518;6.912;2024-02-16T16:12:43;13.70;99.90
7796;DHT22;3942;51.518;6.912;2024-02-16T16:17:46;13.80;99.90
7796;DHT22;3942;51.518;6.912;2024-02-16T16:22:48;13.70;99.90
7796;DHT22;3942;51.518;6.912;2024-02-16T16:32:54;13.60;99.90
7796;DHT22;3942;51.518;6.912;2024-02-16T16:42:58;13.60;99.90
7796;DHT22;3942;51.518;6.912;2024-02-16T16:48:01;13.40;99.90
7796;DHT22;3942;51.518;6.912;2024-02-16T16:53:04;13.40;99.90
7796;DHT22;3942;51.518;6.912;2024-02-16T16:58:06;13.40;99.90
7796;DHT22;3942;51.518;6.912;2024-02-16T17:03:09;13.40;99.90
7796;DHT22;3942;51.518;6.912;2024-02-16T17:08:11;13.40;99.90
7796;DHT22;3942;51.518;6.912;2024-02-16T17:18:16;13.20;99.90
7796;DHT22;3942;51.518;6.912;2024-02-16T17:23:18;13.30;99.90
7796;DHT22;3942;51.518;6.912;2024-02-16T17:28:20;13.30;99.90
7796;DHT22;3942;51.518;6.912;2024-02-16T17:33:23;13.30;99.90
7796;DHT22;3942;51.518;6.912;2024-02-16T17:38:25;13.30;99.90
7796;DHT22;3942;51.518;6.912;2024-02-16T17:43:27;13.20;99.90
7796;DHT22;3942;51.518;6.912;2024-02-16T17:48:30;13.30;99.90
7796;DHT22;3942;51.518;6.912;2024-02-16T17:53:32;13.20;99.90
7796;DHT22;3942;51.518;6.912;2024-02-16T17:58:34;13.10;99.90
7796;DHT22;3942;51.518;6.912;2024-02-16T18:03:37;13.20;99.90
7796;DHT22;3942;51.518;6.912;2024-02-16T18:08:39;13.10;99.90
7796;DHT22;3942;51.518;6.912;2024-02-16T18:18:45;13.00;99.90
7796;DHT22;3942;51.518;6.912;2024-02-16T18:23:46;13.20;99.90
7796;DHT22;3942;51.518;6.912;2024-02-16T18:28:49;13.00;99.90
7796;DHT22;3942;51.518;6.912;2024-02-16T18:33:52;13.00;99.90
7796;DHT22;3942;51.518;6.912;2024-02-16T18:43:56;12.90;99.90
7796;DHT22;3942;51.518;6.912;2024-02-16T18:48:59;12.90;99.90
7796;DHT22;3942;51.518;6.912;2024-02-16T18:54:01;12.90;99.90
7796;DHT22;3942;51.518;6.912;2024-02-16T18:59:06;12.80;99.90
7796;DHT22;3942;51.518;6.912;2024-02-16T19:04:10;12.90;99.90
7796;DHT22;3942;51.518;6.912;2024-02-16T19:14:15;12.80;99.90
7796;DHT22;3942;51.518;6.912;2024-02-16T19:19:18;12.80;99.90
7796;DHT22;3942;51.518;6.912;2024-02-16T19:29:22;12.90;99.90
7796;DHT22;3942;51.518;6.912;2024-02-16T19:34:25;12.70;99.90
7796;DHT22;3942;51.518;6.912;2024-02-16T19:39:27;12.80;99.90
7796;DHT22;3942;51.518;6.912;2024-02-16T19:44:29;12.80;99.90
7796;DHT22;3942;51.518;6.912;2024-02-16T19:49:34;12.90;99.90
7796;DHT22;3942;51.518;6.912;2024-02-16T19:59:38;12.80;99.90
7796;DHT22;3942;51.518;6.912;2024-02-16T20:04:42;12.80;99.90
7796;DHT22;3942;51.518;6.912;2024-02-16T20:09:43;12.70;99.90
7796;DHT22;3942;51.518;6.912;2024-02-16T20:19:49;12.70;99.90
7796;DHT22;3942;51.518;6.912;2024-02-16T20:24:51;12.70;99.90
7796;DHT22;3942;51.518;6.912;2024-02-16T20:29:53;12.70;99.90
7796;DHT22;3942;51.518;6.912;2024-02-16T20:34:56;12.70;99.90
7796;DHT22;3942;51.518;6.912;2024-02-16T20:39:58;12.70;99.90
7796;DHT22;3942;51.518;6.912;2024-02-16T20:50:04;12.70;99.90
7796;DHT22;3942;51.518;6.912;2024-02-16T20:55:06;12.80;99.90
7796;DHT22;3942;51.518;6.912;2024-02-16T21:00:09;12.70;99.90
7796;DHT22;3942;51.518;6.912;2024-02-16T21:05:13;12.70;99.90
7796;DHT22;3942;51.518;6.912;2024-02-16T21:15:17;12.70;99.90
7796;DHT22;3942;51.518;6.912;2024-02-16T21:20:20;12.70;99.90
7796;DHT22;3942;51.518;6.912;2024-02-16T21:35:28;12.50;99.90
7796;DHT22;3942;51.518;6.912;2024-02-16T21:45:34;12.50;99.90
7796;DHT22;3942;51.518;6.912;2024-02-16T21:50:37;12.40;99.90
7796;DHT22;3942;51.518;6.912;2024-02-16T21:55:40;12.40;99.90
7796;DHT22;3942;51.518;6.912;2024-02-16T22:05:45;12.30;99.90
7796;DHT22;3942;51.518;6.912;2024-02-16T22:10:48;12.30;99.90
7796;DHT22;3942;51.518;6.912;2024-02-16T22:15:50;12.30;99.90
7796;DHT22;3942;51.518;6.912;2024-02-16T22:20:53;12.20;99.90
7796;DHT22;3942;51.518;6.912;2024-02-16T22:25:55;12.20;99.90
7796;DHT22;3942;51.518;6.912;2024-02-16T22:30:57;12.20;99.90
7796;DHT22;3942;51.518;6.912;2024-02-16T22:36:00;12.20;99.90
7796;DHT22;3942;51.518;6.912;2024-02-16T22:51:08;12.10;99.90
7796;DHT22;3942;51.518;6.912;2024-02-16T22:56:10;12.00;99.90
7796;DHT22;3942;51.518;6.912;2024-02-16T23:06:16;12.00;99.90
7796;DHT22;3942;51.518;6.912;2024-02-16T23:21:30;11.90;99.90
7796;DHT22;3942;51.518;6.912;2024-02-16T23:26:32;11.80;99.90
7796;DHT22;3942;51.518;6.912;2024-02-16T23:31:33;12.00;99.90
7796;DHT22;3942;51.518;6.912;2024-02-16T23:36:38;11.90;99.90
7796;DHT22;3942;51.518;6.912;2024-02-16T23:41:41;11.90;99.90
7796;DHT22;3942;51.518;6.912;2024-02-16T23:46:43;11.90;99.90
7796;DHT22;3942;51.518;6.912;2024-02-16T23:51:46;11.80;99.90
7796;DHT22;3942;51.518;6.912;2024-02-16T23:56:47;11.70;99.90
